Time;durP1;ratioP1;P1;durP2;ratioP2;P2;SDS_P1;SDS_P2;PMS_P1;PMS_P2;Temp;Humidity;BMP_temperature;BMP_pressure;BME280_temperature;BME280_humidity;BME280_pressure;Samples;Min_cycle;Max_cycle;Signal;HPM_P1;HPM_P2
2022/12/02 05:05:14;;;;;;;18.48;10.07;;;;;;;1.08;100.00;101075.94;6226110;27;20219;-84
2022/12/02 05:08:18;;;;;;;23.90;11.30;;;;;;;1.09;100.00;101085.56;5366468;33;33627;-86
2022/12/02 05:11:20;;;;;;;21.73;10.45;;;;;;;1.15;100.00;101079.03;5369481;33;34382;-86
2022/12/02 05:14:23;;;;;;;22.83;10.60;;;;;;;1.17;100.00;101077.13;5362695;33;33538;-85
2022/12/02 05:17:26;;;;;;;20.70;10.85;;;;;;;1.22;100.00;101080.31;5350822;33;32106;-85
2022/12/02 05:20:29;;;;;;;21.83;11.12;;;;;;;1.23;100.00;101089.12;5368878;33;33737;-86
2022/12/02 05:23:31;;;;;;;21.25;10.30;;;;;;;1.17;100.00;101085.09;5347374;33;34422;-85
2022/12/02 05:26:34;;;;;;;22.65;11.15;;;;;;;1.15;100.00;101083.50;5359811;33;34221;-85
2022/12/02 05:29:37;;;;;;;16.30;9.25;;;;;;;1.16;100.00;101090.47;5362372;33;33707;-86
2022/12/02 05:32:40;;;;;;;20.65;10.48;;;;;;;1.05;100.00;101092.03;5360423;33;34653;-85
2022/12/02 05:35:42;;;;;;;21.00;10.65;;;;;;;1.13;100.00;101087.06;5359871;33;33707;-85
2022/12/02 05:38:45;;;;;;;20.90;10.75;;;;;;;1.25;100.00;101084.56;5361653;33;33612;-85
2022/12/02 05:41:48;;;;;;;23.02;11.65;;;;;;;1.20;100.00;101087.53;5359197;33;33767;-85
2022/12/02 05:44:51;;;;;;;22.13;11.27;;;;;;;1.21;100.00;101085.75;5363024;33;34173;-85
2022/12/02 05:47:54;;;;;;;21.10;10.80;;;;;;;1.15;100.00;101084.34;5362298;33;34021;-85
2022/12/02 05:50:57;;;;;;;23.60;11.55;;;;;;;1.22;100.00;101084.78;5364030;33;33191;-85
2022/12/02 05:54:00;;;;;;;24.33;11.68;;;;;;;1.15;100.00;101084.34;5349070;33;31903;-85
2022/12/02 05:57:06;;;;;;;23.10;12.05;;;;;;;1.20;100.00;101087.53;5362642;33;34098;-85
2022/12/02 06:00:12;;;;;;;21.85;11.07;;;;;;;1.16;100.00;101086.03;5349474;33;32472;-85
2022/12/02 06:03:18;;;;;;;21.23;10.23;;;;;;;1.15;100.00;101086.12;5363834;33;34044;-85
2022/12/02 06:06:27;;;;;;;22.40;10.95;;;;;;;1.12;100.00;101087.19;5362698;33;34460;-85
2022/12/02 06:09:32;;;;;;;22.42;10.55;;;;;;;1.17;100.00;101089.53;5363448;33;34495;-85
2022/12/02 06:12:35;;;;;;;21.27;10.75;;;;;;;1.15;100.00;101099.41;5362085;33;33408;-85
2022/12/02 06:15:38;;;;;;;24.58;11.25;;;;;;;1.12;100.00;101096.00;5361910;33;33508;-85
2022/12/02 06:18:40;;;;;;;25.90;12.20;;;;;;;1.15;100.00;101102.06;5361929;33;34181;-85
2022/12/02 06:21:43;;;;;;;20.10;10.20;;;;;;;1.17;100.00;101097.47;5349070;33;32092;-85
2022/12/02 06:24:46;;;;;;;25.95;11.82;;;;;;;1.22;100.00;101106.00;5356411;33;33556;-86
2022/12/02 06:27:49;;;;;;;23.35;12.18;;;;;;;1.16;100.00;101106.41;5361641;33;33990;-85
2022/12/02 06:30:55;;;;;;;21.25;10.85;;;;;;;1.21;100.00;101106.94;5362424;33;33182;-86
2022/12/02 06:34:04;;;;;;;23.10;10.82;;;;;;;1.52;100.00;101105.78;5361362;33;34199;-89
2022/12/02 06:37:17;;;;;;;21.42;11.43;;;;;;;1.36;100.00;101108.59;5362518;33;33325;-89
2022/12/02 06:40:29;;;;;;;22.90;11.55;;;;;;;1.28;100.00;101105.59;5348053;33;33428;-86
2022/12/02 06:43:33;;;;;;;24.70;12.57;;;;;;;1.23;100.00;101113.88;5361323;33;33093;-86
2022/12/02 06:46:36;;;;;;;30.23;11.52;;;;;;;1.25;100.00;101119.91;5360450;33;34380;-86
2022/12/02 06:49:39;;;;;;;26.73;12.27;;;;;;;1.28;100.00;101121.50;5362111;33;33543;-86
2022/12/02 06:52:45;;;;;;;26.30;11.50;;;;;;;1.32;100.00;101115.91;5370029;33;34391;-84
2022/12/02 06:55:50;;;;;;;22.90;11.30;;;;;;;1.35;100.00;101115.72;5356382;33;32638;-85
2022/12/02 06:59:03;;;;;;;23.40;11.68;;;;;;;1.31;100.00;101124.81;5328850;33;1171765;-83
2022/12/02 07:02:23;;;;;;;23.02;11.23;;;;;;;1.36;100.00;101119.22;5348199;33;34283;-86
2022/12/02 07:05:26;;;;;;;25.15;11.65;;;;;;;1.39;100.00;101119.00;5345378;33;33458;-87
2022/12/02 07:08:29;;;;;;;25.50;11.25;;;;;;;1.51;100.00;101122.66;5353553;33;33833;-86
2022/12/02 07:11:49;;;;;;;26.95;12.90;;;;;;;1.48;100.00;101128.16;5354398;33;34317;-84
2022/12/02 07:14:55;;;;;;;24.10;11.30;;;;;;;1.50;100.00;101121.81;5361079;33;33438;-86
2022/12/02 07:18:09;;;;;;;25.20;11.20;;;;;;;1.51;100.00;101125.31;5353901;33;33691;-86
2022/12/02 07:21:13;;;;;;;24.02;11.75;;;;;;;1.56;100.00;101123.22;5360348;33;33540;-87
2022/12/02 07:24:19;;;;;;;23.90;11.48;;;;;;;1.59;100.00;101123.84;5349745;33;33685;-87
2022/12/02 07:27:28;;;;;;;23.62;11.90;;;;;;;1.64;100.00;101131.53;5359684;33;33982;-87
2022/12/02 07:30:38;;;;;;;23.62;11.77;;;;;;;1.65;100.00;101127.91;5358767;33;33515;-87
2022/12/02 07:33:41;;;;;;;25.27;12.77;;;;;;;1.70;100.00;101131.09;5359464;33;33921;-86
2022/12/02 07:36:44;;;;;;;26.17;14.13;;;;;;;1.80;100.00;101137.50;5360182;33;33533;-89
2022/12/02 07:39:46;;;;;;;24.67;12.90;;;;;;;1.83;100.00;101136.44;5362287;33;33616;-89
2022/12/02 07:42:50;;;;;;;26.00;13.13;;;;;;;1.80;100.00;101136.66;5366952;33;33616;-89
2022/12/02 07:45:52;;;;;;;25.60;12.63;;;;;;;2.04;100.00;101139.44;5368608;33;33984;-87
2022/12/02 07:48:55;;;;;;;24.90;12.80;;;;;;;2.08;100.00;101140.09;5351774;33;32134;-85
2022/12/02 07:51:59;;;;;;;26.05;12.75;;;;;;;2.13;100.00;101157.41;5364265;33;33605;-85
2022/12/02 07:55:02;;;;;;;28.02;12.35;;;;;;;2.22;100.00;101145.31;5357702;33;34108;-85
2022/12/02 07:58:05;;;;;;;27.10;12.93;;;;;;;2.43;100.00;101148.31;5346354;33;33617;-85
2022/12/02 08:01:08;;;;;;;25.02;12.95;;;;;;;2.28;100.00;101147.53;5353377;33;33330;-85
2022/12/02 08:04:14;;;;;;;27.08;12.68;;;;;;;2.39;99.18;101142.34;5357046;33;33568;-86
2022/12/02 08:07:20;;;;;;;26.23;13.10;;;;;;;2.58;99.36;101152.56;5350332;33;34211;-86
2022/12/02 08:10:24;;;;;;;29.73;13.20;;;;;;;2.64;98.64;101145.97;5360192;33;34347;-85
2022/12/02 08:13:26;;;;;;;24.37;12.48;;;;;;;2.56;100.00;101145.63;5354538;33;33858;-85
2022/12/02 08:16:29;;;;;;;25.48;11.90;;;;;;;2.55;98.54;101146.63;5359691;33;33900;-86
2022/12/02 08:19:32;;;;;;;27.25;12.70;;;;;;;2.64;98.39;101149.47;5360277;33;33128;-86
2022/12/02 08:22:35;;;;;;;24.67;13.27;;;;;;;2.81;98.24;101147.41;5357942;33;33168;-85
2022/12/02 08:25:37;;;;;;;25.35;12.57;;;;;;;2.87;96.95;101149.66;5360256;33;32990;-86
2022/12/02 08:28:40;;;;;;;24.05;11.82;;;;;;;2.98;97.68;101149.72;5359970;33;34257;-86
2022/12/02 08:31:43;;;;;;;24.08;11.77;;;;;;;3.08;95.33;101149.94;5349575;33;33289;-86
2022/12/02 08:34:46;;;;;;;26.25;13.10;;;;;;;3.31;93.54;101148.25;5342333;33;34698;-85
2022/12/02 08:37:49;;;;;;;29.08;13.18;;;;;;;3.43;93.25;101141.19;5342085;33;34154;-85
2022/12/02 08:40:51;;;;;;;23.80;12.57;;;;;;;3.65;92.42;101143.94;5342547;33;34123;-85
2022/12/02 08:43:54;;;;;;;24.40;13.48;;;;;;;3.81;91.66;101141.00;5351155;33;33950;-85
2022/12/02 08:46:57;;;;;;;26.25;12.98;;;;;;;3.55;91.56;101141.13;5352622;33;34015;-85
2022/12/02 08:50:00;;;;;;;24.80;12.88;;;;;;;3.68;90.74;101146.38;5357519;33;33671;-86
2022/12/02 08:53:03;;;;;;;28.10;13.98;;;;;;;3.76;91.67;101146.66;5356265;33;33841;-86
2022/12/02 08:56:05;;;;;;;23.77;12.65;;;;;;;3.72;90.87;101145.19;5349626;33;33577;-85
2022/12/02 08:59:08;;;;;;;23.42;12.23;;;;;;;3.70;91.77;101146.28;5363045;33;34286;-84
2022/12/02 09:02:11;;;;;;;23.15;12.00;;;;;;;3.38;90.19;101150.34;5368204;33;33567;-84
2022/12/02 09:05:14;;;;;;;26.23;12.68;;;;;;;3.42;90.74;101145.63;5342250;33;32366;-84
2022/12/02 09:08:16;;;;;;;24.35;12.37;;;;;;;3.38;92.51;101153.00;5338341;33;33354;-84
2022/12/02 09:11:20;;;;;;;24.92;12.82;;;;;;;3.71;89.90;101143.47;5339740;33;34931;-83
2022/12/02 09:14:22;;;;;;;22.85;12.13;;;;;;;3.63;90.01;101143.22;5326271;33;31976;-84
2022/12/02 09:17:25;;;;;;;23.65;11.45;;;;;;;3.47;91.28;101147.97;5337913;33;33449;-85
2022/12/02 09:20:27;;;;;;;22.65;12.60;;;;;;;3.72;89.62;101152.34;5340375;33;33679;-84
2022/12/02 09:23:30;;;;;;;26.45;12.60;;;;;;;3.36;91.77;101141.63;5333918;33;33089;-84
2022/12/02 09:26:33;;;;;;;23.30;12.18;;;;;;;3.35;93.14;101145.25;5342818;33;33323;-85
2022/12/02 09:29:36;;;;;;;21.48;12.15;;;;;;;3.49;91.52;101144.25;5344075;33;34299;-85
2022/12/02 09:32:39;;;;;;;22.23;12.45;;;;;;;3.59;91.41;101147.06;5341806;33;33179;-84
2022/12/02 09:35:42;;;;;;;25.50;12.63;;;;;;;3.56;91.47;101144.63;5327414;33;32341;-84
2022/12/02 09:38:44;;;;;;;23.58;12.55;;;;;;;3.53;91.23;101152.84;5330952;33;33440;-84
2022/12/02 09:41:47;;;;;;;25.02;11.88;;;;;;;3.39;92.26;101146.75;5325613;33;33456;-85
2022/12/02 09:44:51;;;;;;;23.85;11.82;;;;;;;3.64;91.52;101136.94;5334219;33;33434;-84
2022/12/02 09:47:54;;;;;;;25.08;12.77;;;;;;;3.68;91.60;101140.19;5342823;33;32121;-85
2022/12/02 09:50:57;;;;;;;21.25;10.95;;;;;;;3.84;91.31;101140.75;5342934;33;34024;-85
2022/12/02 09:54:02;;;;;;;25.02;12.18;;;;;;;4.08;89.52;101138.03;5339868;33;34588;-84
2022/12/02 09:57:10;;;;;;;27.80;12.57;;;;;;;4.17;88.83;101134.66;5324889;33;31958;-85
2022/12/02 10:00:18;;;;;;;26.75;12.85;;;;;;;3.94;89.44;101138.25;5322636;33;32686;-89
2022/12/02 10:03:29;;;;;;;23.05;12.30;;;;;;;4.14;89.84;101137.56;5336861;33;33464;-89
2022/12/02 10:06:34;;;;;;;25.62;12.65;;;;;;;4.44;87.54;101136.16;5334840;33;33391;-85
2022/12/02 10:09:43;;;;;;;23.85;13.10;;;;;;;4.35;88.84;101128.87;5349729;33;33947;-84
2022/12/02 10:12:47;;;;;;;26.05;13.40;;;;;;;4.49;88.12;101134.00;5338546;33;32540;-84
2022/12/02 10:15:51;;;;;;;26.37;12.73;;;;;;;4.37;88.47;101132.28;5356690;33;33606;-85
2022/12/02 10:18:59;;;;;;;24.90;13.73;;;;;;;4.43;88.16;101132.66;5360259;33;33454;-85
2022/12/02 10:22:13;;;;;;;27.23;13.48;;;;;;;4.48;87.72;101127.81;5360044;33;33448;-85
2022/12/02 10:25:31;;;;;;;22.27;11.82;;;;;;;4.43;86.60;101127.31;5354656;33;33485;-84
2022/12/02 10:28:36;;;;;;;29.05;12.27;;;;;;;4.30;86.37;101132.78;5358945;33;34214;-85
2022/12/02 10:31:53;;;;;;;21.75;11.95;;;;;;;4.50;86.86;101133.91;5347894;33;33617;-85
2022/12/02 10:35:11;;;;;;;26.35;13.10;;;;;;;4.59;86.27;101124.28;5361729;33;33850;-85
2022/12/02 10:38:35;;;;;;;24.73;12.55;;;;;;;4.75;86.03;101124.78;5354047;33;33449;-85
2022/12/02 10:41:38;;;;;;;23.67;13.35;;;;;;;4.80;84.56;101127.09;5343154;33;34921;-85
2022/12/02 10:44:44;;;;;;;24.17;12.30;;;;;;;4.82;85.45;101122.47;5351872;33;34164;-84
2022/12/02 10:47:48;;;;;;;27.85;12.50;;;;;;;4.68;84.90;101122.72;5347986;33;33667;-85
2022/12/02 10:50:51;;;;;;;24.33;13.13;;;;;;;4.66;85.48;101119.34;5357263;33;33566;-86
2022/12/02 10:53:57;;;;;;;23.25;12.68;;;;;;;4.53;86.77;101122.09;5353681;33;34914;-86
2022/12/02 10:57:02;;;;;;;22.67;12.57;;;;;;;4.55;86.58;101117.50;5335330;33;31743;-89
2022/12/02 11:00:22;;;;;;;25.58;12.85;;;;;;;4.46;85.34;101112.91;5358397;33;33607;-90
2022/12/02 11:03:25;;;;;;;26.00;12.57;;;;;;;4.53;86.72;101114.09;5343989;33;32488;-86
2022/12/02 11:06:27;;;;;;;23.77;12.68;;;;;;;4.48;86.12;101109.16;5352547;33;33581;-86
2022/12/02 11:09:30;;;;;;;26.25;12.77;;;;;;;4.34;86.84;101109.38;5354031;33;33526;-86
2022/12/02 11:12:48;;;;;;;25.95;12.65;;;;;;;4.54;86.15;101108.66;5361377;33;33809;-86
2022/12/02 11:15:51;;;;;;;26.30;12.73;;;;;;;4.45;85.88;101103.22;5360253;33;33721;-86
2022/12/02 11:19:02;;;;;;;26.10;13.02;;;;;;;4.62;84.39;101100.06;5356537;33;33498;-86
2022/12/02 11:22:44;;;;;;;23.20;12.70;;;;;;;4.73;85.18;101100.03;5355677;33;33430;-86
2022/12/02 11:25:46;;;;;;;25.10;12.50;;;;;;;4.73;85.69;101107.19;5353539;33;33647;-85
2022/12/02 11:29:16;;;;;;;25.55;13.85;;;;;;;4.87;84.58;101100.78;5342796;33;30800;-85
2022/12/02 11:32:21;;;;;;;27.27;12.88;;;;;;;4.61;87.87;101102.84;5348088;33;32802;-85
2022/12/02 11:36:10;;;;;;;24.87;12.65;;;;;;;4.36;87.75;101103.91;5356997;33;34925;-85
2022/12/02 11:39:39;;;;;;;27.53;12.47;;;;;;;4.30;92.36;101105.28;5353930;33;34200;-86
2022/12/02 11:42:43;;;;;;;23.25;12.25;;;;;;;4.24;92.64;101101.25;5346192;33;33476;-85
2022/12/02 11:45:46;;;;;;;25.83;12.37;;;;;;;4.15;93.76;101098.44;5353600;33;33425;-85
2022/12/02 11:48:54;;;;;;;24.60;12.13;;;;;;;4.25;94.18;101097.63;5369618;33;33907;-86
2022/12/02 11:52:12;;;;;;;25.83;13.10;;;;;;;4.27;94.54;101098.37;5333436;33;32333;-86
2022/12/02 11:55:22;;;;;;;24.33;11.48;;;;;;;4.24;92.97;101093.28;5345741;33;33948;-86
2022/12/02 11:58:33;;;;;;;26.90;12.48;;;;;;;4.17;93.54;101092.03;5356233;33;32208;-86
2022/12/02 12:01:47;;;;;;;22.23;11.95;;;;;;;4.12;95.55;101093.34;5344358;33;33434;-86
2022/12/02 12:05:06;;;;;;;25.12;12.70;;;;;;;4.32;95.24;101090.84;5341599;33;32685;-86
2022/12/02 12:08:08;;;;;;;27.62;13.48;;;;;;;4.36;92.78;101088.81;5350836;33;34294;-86
2022/12/02 12:11:24;;;;;;;26.52;12.60;;;;;;;4.53;94.43;101088.31;5358345;33;34453;-86
2022/12/02 12:14:26;;;;;;;22.62;11.73;;;;;;;4.86;89.45;101091.94;5354046;33;31745;-86
2022/12/02 12:17:36;;;;;;;26.00;13.93;;;;;;;4.98;89.08;101084.75;5367330;33;33159;-86
2022/12/02 12:20:39;;;;;;;24.80;12.40;;;;;;;5.00;89.59;101090.78;5355254;33;33654;-86
2022/12/02 12:23:44;;;;;;;23.80;12.52;;;;;;;5.02;90.31;101086.19;5350846;33;33955;-88
2022/12/02 12:26:50;;;;;;;21.58;11.75;;;;;;;4.99;88.41;101092.62;5371234;33;33503;-90
2022/12/02 12:29:54;;;;;;;25.15;12.55;;;;;;;4.73;88.20;101081.37;5356961;33;34362;-87
2022/12/02 12:32:57;;;;;;;24.40;12.75;;;;;;;4.49;91.12;101091.34;5346820;33;32314;-87
2022/12/02 12:36:00;;;;;;;26.85;12.43;;;;;;;4.18;92.32;101095.53;5345854;33;32439;-85
2022/12/02 12:39:05;;;;;;;24.33;12.40;;;;;;;4.22;92.89;101089.88;5356995;33;34303;-86
2022/12/02 12:42:08;;;;;;;25.95;13.43;;;;;;;4.00;96.10;101079.16;5340805;33;32288;-86
2022/12/02 12:45:10;;;;;;;24.63;12.32;;;;;;;3.94;95.50;101091.13;5355453;33;33476;-86
2022/12/02 12:48:13;;;;;;;24.95;12.88;;;;;;;3.95;93.77;101089.31;5353975;33;34230;-86
2022/12/02 12:51:16;;;;;;;26.30;12.77;;;;;;;3.92;94.75;101093.09;5345688;33;31532;-86
2022/12/02 12:54:19;;;;;;;23.15;12.23;;;;;;;4.00;94.93;101088.00;5360679;33;33264;-85
2022/12/02 12:57:22;;;;;;;23.48;12.25;;;;;;;3.96;96.82;101091.03;5348856;33;33603;-86
2022/12/02 13:00:24;;;;;;;27.45;12.10;;;;;;;3.79;95.56;101087.81;5344388;33;32002;-85
2022/12/02 13:03:27;;;;;;;24.58;12.68;;;;;;;3.64;95.12;101092.50;5360401;33;34229;-85
2022/12/02 13:06:30;;;;;;;20.58;10.95;;;;;;;3.69;95.56;101084.19;5361003;33;34349;-86
2022/12/02 13:09:33;;;;;;;22.23;11.77;;;;;;;3.59;96.56;101091.16;5362034;33;34358;-86
2022/12/02 13:12:36;;;;;;;24.73;12.40;;;;;;;3.45;96.91;101094.84;5361429;33;33218;-85
2022/12/02 13:15:39;;;;;;;24.33;11.98;;;;;;;3.47;95.86;101094.72;5361660;33;34170;-85
2022/12/02 13:18:42;;;;;;;24.10;12.37;;;;;;;3.47;95.82;101094.72;5360637;33;33814;-85
2022/12/02 13:21:44;;;;;;;25.05;12.65;;;;;;;3.48;97.67;101091.97;5362785;33;33678;-85
2022/12/02 13:24:47;;;;;;;29.45;12.93;;;;;;;3.52;97.50;101089.94;5351981;33;33972;-85
2022/12/02 13:27:50;;;;;;;23.05;12.00;;;;;;;3.32;99.93;101094.06;5355475;33;34272;-85
2022/12/02 13:30:54;;;;;;;26.45;13.23;;;;;;;3.41;98.91;101088.91;5356576;33;34395;-85
2022/12/02 13:33:57;;;;;;;26.75;12.85;;;;;;;3.36;99.87;101095.53;5345484;33;34693;-86
2022/12/02 13:37:00;;;;;;;30.12;13.68;;;;;;;3.23;100.00;101095.59;5354739;33;33383;-86
2022/12/02 13:40:05;;;;;;;26.17;13.27;;;;;;;3.27;100.00;101098.88;5348025;33;33440;-85
2022/12/02 13:43:07;;;;;;;25.15;12.65;;;;;;;3.13;100.00;101100.75;5349923;33;33668;-86
2022/12/02 13:46:10;;;;;;;23.98;12.37;;;;;;;3.13;100.00;101107.84;5334708;33;32187;-86
2022/12/02 13:49:13;;;;;;;30.67;14.98;;;;;;;3.01;100.00;101103.44;5348637;33;33705;-85
2022/12/02 13:52:16;;;;;;;26.35;12.75;;;;;;;2.99;100.00;101110.69;5349942;33;34207;-85
2022/12/02 13:55:19;;;;;;;29.70;14.23;;;;;;;2.93;100.00;101107.50;5353674;33;34918;-85
2022/12/02 13:58:21;;;;;;;29.55;14.05;;;;;;;2.89;100.00;101114.00;5348699;33;33474;-85
2022/12/02 14:01:24;;;;;;;25.55;12.65;;;;;;;2.73;100.00;101111.59;5362103;33;34135;-85
2022/12/02 14:04:27;;;;;;;26.27;12.73;;;;;;;2.72;100.00;101117.00;5356609;33;33957;-86
2022/12/02 14:07:30;;;;;;;33.92;13.90;;;;;;;2.65;100.00;101121.06;5329241;33;32572;-85
2022/12/02 14:10:33;;;;;;;28.62;14.20;;;;;;;2.60;100.00;101125.84;5349091;33;33527;-86
2022/12/02 14:13:35;;;;;;;27.60;13.50;;;;;;;2.56;100.00;101119.06;5358734;33;34987;-85
2022/12/02 14:16:38;;;;;;;28.12;14.07;;;;;;;2.49;100.00;101116.84;5360596;33;32709;-86
2022/12/02 14:19:41;;;;;;;31.08;14.38;;;;;;;2.46;100.00;101122.38;5368556;33;34873;-86
2022/12/02 14:22:44;;;;;;;34.10;13.75;;;;;;;2.46;100.00;101117.06;5339677;33;34095;-85
2022/12/02 14:25:47;;;;;;;33.92;14.35;;;;;;;2.44;100.00;101121.63;5349159;33;34079;-85
2022/12/02 14:28:50;;;;;;;25.80;13.50;;;;;;;2.53;100.00;101127.25;5337197;33;32017;-86
2022/12/02 14:31:52;;;;;;;25.98;12.55;;;;;;;2.55;100.00;101122.69;5354448;33;33655;-85
2022/12/02 14:34:56;;;;;;;32.22;14.45;;;;;;;2.56;100.00;101127.88;5331740;33;33062;-85
2022/12/02 14:37:58;;;;;;;29.00;14.50;;;;;;;2.53;100.00;101124.59;5347338;33;34010;-84
2022/12/02 14:41:01;;;;;;;32.17;15.95;;;;;;;2.52;100.00;101130.88;5345818;33;33490;-85
2022/12/02 14:44:04;;;;;;;31.98;14.48;;;;;;;2.48;100.00;101132.88;5358261;33;34016;-85
2022/12/02 14:47:07;;;;;;;27.52;13.62;;;;;;;2.35;100.00;101140.00;5359246;33;34647;-86
2022/12/02 14:50:09;;;;;;;28.60;14.95;;;;;;;2.22;100.00;101132.03;5347344;33;32269;-88
2022/12/02 14:53:13;;;;;;;32.78;15.30;;;;;;;2.22;100.00;101132.91;5349393;33;31977;-91
2022/12/02 14:56:15;;;;;;;27.37;14.82;;;;;;;2.20;100.00;101129.50;5364255;33;34936;-92
2022/12/02 14:59:19;;;;;;;33.13;14.85;;;;;;;2.28;100.00;101131.59;5352053;33;33466;-89
2022/12/02 15:02:21;;;;;;;30.12;14.13;;;;;;;2.24;100.00;101124.81;5345175;33;32151;-85
2022/12/02 15:05:24;;;;;;;29.65;14.20;;;;;;;2.18;100.00;101130.53;5348810;33;31984;-86
2022/12/02 15:08:27;;;;;;;31.05;14.07;;;;;;;2.21;100.00;101133.00;5347834;33;33043;-87
2022/12/02 15:11:30;;;;;;;28.15;14.87;;;;;;;2.08;100.00;101146.28;5366584;33;35239;-87
2022/12/02 15:14:32;;;;;;;33.33;15.35;;;;;;;2.11;100.00;101142.56;5371289;33;33662;-87
2022/12/02 15:17:35;;;;;;;34.95;16.35;;;;;;;2.10;100.00;101149.66;5364790;33;33793;-87
2022/12/02 15:20:38;;;;;;;32.78;16.00;;;;;;;2.11;100.00;101147.88;5369515;33;33780;-86
2022/12/02 15:23:41;;;;;;;33.80;14.68;;;;;;;2.09;100.00;101147.12;5357211;33;32563;-86
2022/12/02 15:26:43;;;;;;;32.08;16.05;;;;;;;2.06;100.00;101150.81;5357699;33;32304;-86
2022/12/02 15:29:46;;;;;;;30.83;15.18;;;;;;;2.08;100.00;101156.91;5365634;33;33980;-84
2022/12/02 15:32:49;;;;;;;29.80;14.32;;;;;;;1.99;100.00;101161.03;5373467;33;34416;-84
2022/12/02 15:35:52;;;;;;;34.08;15.38;;;;;;;1.95;100.00;101162.16;5369163;33;33898;-86
2022/12/02 15:38:54;;;;;;;32.58;15.48;;;;;;;1.90;100.00;101164.28;5373381;33;33479;-85
2022/12/02 15:41:57;;;;;;;37.38;17.02;;;;;;;1.87;100.00;101164.47;5377751;33;35134;-85
2022/12/02 15:45:00;;;;;;;31.48;14.90;;;;;;;1.88;100.00;101168.00;5373666;33;35986;-84
2022/12/02 15:48:03;;;;;;;31.98;15.63;;;;;;;1.88;100.00;101163.53;5374880;33;33967;-85
2022/12/02 15:51:05;;;;;;;32.00;15.77;;;;;;;2.10;100.00;101168.25;5367783;33;33956;-86
2022/12/02 15:54:08;;;;;;;34.55;15.60;;;;;;;2.00;100.00;101173.34;5363610;33;34082;-85
2022/12/02 15:57:11;;;;;;;28.38;15.80;;;;;;;1.93;100.00;101174.72;5361615;33;33438;-85
2022/12/02 16:00:14;;;;;;;32.80;14.93;;;;;;;1.98;100.00;101175.22;5369104;33;33584;-85
2022/12/02 16:03:17;;;;;;;36.75;16.77;;;;;;;1.98;100.00;101175.22;5361112;33;33850;-85
2022/12/02 16:06:20;;;;;;;32.08;15.38;;;;;;;1.94;100.00;101173.75;5340648;33;31685;-85
2022/12/02 16:09:23;;;;;;;35.38;16.00;;;;;;;1.93;100.00;101180.03;5361725;33;32376;-85
2022/12/02 16:12:26;;;;;;;36.72;17.05;;;;;;;1.88;100.00;101178.63;5356638;33;34584;-85
2022/12/02 16:15:29;;;;;;;32.70;16.00;;;;;;;1.90;100.00;101172.25;5358743;33;33850;-86
2022/12/02 16:18:33;;;;;;;31.48;15.73;;;;;;;1.86;100.00;101178.72;5350576;33;32805;-85
2022/12/02 16:21:36;;;;;;;29.33;15.18;;;;;;;1.96;100.00;101179.81;5363958;33;33842;-85
2022/12/02 16:24:39;;;;;;;31.42;16.65;;;;;;;1.98;100.00;101185.00;5362970;33;34050;-85
2022/12/02 16:27:42;;;;;;;34.53;16.40;;;;;;;1.97;100.00;101185.97;5335157;33;33118;-85
2022/12/02 16:30:45;;;;;;;33.05;16.12;;;;;;;1.87;100.00;101176.91;5346414;33;34343;-86
2022/12/02 16:33:49;;;;;;;33.88;17.15;;;;;;;1.89;100.00;101186.47;5335353;33;32432;-85
2022/12/02 16:36:51;;;;;;;35.22;16.33;;;;;;;1.86;100.00;101184.03;5344364;33;33504;-86
2022/12/02 16:39:54;;;;;;;35.70;17.40;;;;;;;1.84;100.00;101191.22;5352807;33;34232;-86
2022/12/02 16:42:57;;;;;;;32.92;17.15;;;;;;;1.83;100.00;101188.69;5336622;33;31951;-85
2022/12/02 16:46:00;;;;;;;36.38;16.67;;;;;;;1.84;100.00;101191.22;5350344;33;33130;-85
2022/12/02 16:49:05;;;;;;;31.52;16.85;;;;;;;1.75;100.00;101197.16;5352776;33;33890;-85
2022/12/02 16:52:07;;;;;;;35.70;16.67;;;;;;;1.77;100.00;101192.59;5360249;33;33692;-86
2022/12/02 16:55:10;;;;;;;35.67;16.58;;;;;;;1.71;100.00;101188.53;5359084;33;33690;-86
2022/12/02 16:58:13;;;;;;;37.28;16.95;;;;;;;1.71;100.00;101187.69;5354196;33;34454;-86
2022/12/02 17:01:16;;;;;;;36.50;16.00;;;;;;;1.78;100.00;101192.50;5348407;33;33126;-86
2022/12/02 17:04:19;;;;;;;36.45;16.90;;;;;;;1.71;100.00;101195.66;5345402;33;34417;-85
